createdAt,value
2022-08-21T00:00:55.481Z,101528.63
2022-08-21T00:03:27.458Z,101530.53
2022-08-21T00:05:59.601Z,101533.06
2022-08-21T00:08:31.771Z,101521.81
2022-08-21T00:11:04.953Z,101523.72
2022-08-21T00:13:37.123Z,101522.03
2022-08-21T00:16:09.395Z,101517.59
2022-08-21T00:18:42.082Z,101514.84
2022-08-21T00:21:15.373Z,101512.94
2022-08-21T00:23:47.313Z,101519.03
2022-08-21T00:26:19.433Z,101508.25
2022-08-21T00:28:51.791Z,101512.09
2022-08-21T00:31:23.749Z,101509.00
2022-08-21T00:34:00.653Z,101507.53
2022-08-21T00:36:33.255Z,101500.34
2022-08-21T00:39:07.568Z,101508.63
2022-08-21T00:41:40.427Z,101499.53
2022-08-21T00:44:16.304Z,101492.94
2022-08-21T00:46:48.365Z,101500.94
2022-08-21T00:49:20.358Z,101493.50
2022-08-21T00:51:55.222Z,101495.22
2022-08-21T00:54:29.003Z,101493.31
2022-08-21T00:57:10.789Z,101492.25
2022-08-21T00:59:45.519Z,101496.91
2022-08-21T01:02:18.486Z,101497.13
2022-08-21T01:04:50.802Z,101505.59
2022-08-21T01:07:22.808Z,101499.03
2022-08-21T01:09:59.553Z,101493.78
2022-08-21T01:12:32.492Z,101499.28
2022-08-21T01:15:07.213Z,101497.22
2022-08-21T01:17:39.541Z,101499.06
2022-08-21T01:20:13.106Z,101509.47
2022-08-21T01:22:45.210Z,101502.50
2022-08-21T01:25:18.497Z,101501.72
2022-08-21T01:27:50.434Z,101499.19
2022-08-21T01:30:26.239Z,101508.75
2022-08-21T01:32:59.047Z,101507.56
2022-08-21T01:35:31.142Z,101503.13
2022-08-21T01:38:03.833Z,101499.78
2022-08-21T01:40:35.927Z,101505.53
2022-08-21T01:43:08.671Z,101502.44
2022-08-21T01:45:40.586Z,101502.91
2022-08-21T01:48:12.712Z,101502.56
2022-08-21T01:50:44.639Z,101496.69
2022-08-21T01:53:16.624Z,101498.84
2022-08-21T01:55:48.647Z,101493.34
2022-08-21T01:58:21.731Z,101492.25
2022-08-21T02:00:53.856Z,101498.59
2022-08-21T02:03:35.919Z,101492.25
2022-08-21T02:06:12.753Z,101498.38
2022-08-21T02:08:45.368Z,101496.69
2022-08-21T02:11:17.548Z,101495.50
2022-08-21T02:13:49.766Z,101490.97
2022-08-21T02:16:21.785Z,101497.41
2022-08-21T02:18:53.819Z,101493.69
2022-08-21T02:21:26.298Z,101495.03
2022-08-21T02:23:58.510Z,101493.34
2022-08-21T02:26:30.385Z,101490.38
2022-08-21T02:29:04.087Z,101490.09
2022-08-21T02:31:36.118Z,101487.72
2022-08-21T02:34:09.870Z,101490.00
2022-08-21T02:36:43.654Z,101487.59
2022-08-21T02:39:15.845Z,101492.63
2022-08-21T02:41:59.504Z,101486.63
2022-08-21T02:44:34.464Z,101492.50
2022-08-21T02:47:07.162Z,101494.19
2022-08-21T02:49:39.133Z,101485.91
2022-08-21T02:52:12.809Z,101480.66
2022-08-21T02:54:44.988Z,101479.00
2022-08-21T02:57:17.324Z,101470.13
2022-08-21T02:59:49.400Z,101475.88
2022-08-21T03:02:22.645Z,101482.22
2022-08-21T03:04:54.897Z,101471.69
2022-08-21T03:07:27.549Z,101474.94
2022-08-21T03:09:59.581Z,101484.72
2022-08-21T03:12:31.818Z,101475.06
2022-08-21T03:15:05.557Z,101476.34
2022-08-21T03:17:38.128Z,101471.34
2022-08-21T03:20:11.645Z,101473.47
2022-08-21T03:22:48.544Z,101467.63
2022-08-21T03:25:39.513Z,101474.47
2022-08-21T03:28:16.514Z,101474.91
2022-08-21T03:30:50.407Z,101469.88
2022-08-21T03:33:23.340Z,101475.81
2022-08-21T03:36:03.578Z,101472.94
2022-08-21T03:38:37.852Z,101468.44
2022-08-21T03:41:09.969Z,101468.88
2022-08-21T03:43:42.122Z,101463.25
2022-08-21T03:46:14.784Z,101462.66
2022-08-21T03:48:47.003Z,101466.94
2022-08-21T03:51:19.455Z,101472.91
2022-08-21T03:53:51.492Z,101475.06
2022-08-21T03:56:23.695Z,101467.28
2022-08-21T03:58:56.661Z,101471.59
2022-08-21T04:01:28.980Z,101474.56
2022-08-21T04:04:01.105Z,101473.97
2022-08-21T04:06:37.771Z,101471.47
2022-08-21T04:09:09.983Z,101471.69
2022-08-21T04:11:42.124Z,101479.09
2022-08-21T04:14:15.268Z,101464.75
2022-08-21T04:16:47.553Z,101476.81
2022-08-21T04:19:19.590Z,101479.56
2022-08-21T04:21:52.638Z,101475.97
2022-08-21T04:24:24.706Z,101477.88
2022-08-21T04:26:56.683Z,101478.72
2022-08-21T04:29:28.803Z,101475.75
2022-08-21T04:32:00.903Z,101474.69
2022-08-21T04:34:33.191Z,101475.28
2022-08-21T04:37:05.468Z,101475.63
2022-08-21T04:39:37.457Z,101485.34
2022-08-21T04:42:10.452Z,101478.50
2022-08-21T04:44:42.546Z,101488.22
2022-08-21T04:47:14.621Z,101486.66
2022-08-21T04:49:46.882Z,101489.78
2022-08-21T04:52:22.764Z,101494.81
2022-08-21T04:54:55.071Z,101489.06
2022-08-21T04:57:39.749Z,101492.19
2022-08-21T05:00:20.399Z,101500.81
2022-08-21T05:02:57.185Z,101494.25
2022-08-21T05:05:30.281Z,101503.56
2022-08-21T05:08:03.100Z,101505.09
2022-08-21T05:10:35.370Z,101503.28
2022-08-21T05:13:08.014Z,101499.94
2022-08-21T05:15:40.793Z,101501.03
2022-08-21T05:18:13.703Z,101505.91
2022-08-21T05:20:46.090Z,101499.56
2022-08-21T05:23:18.356Z,101503.78
2022-08-21T05:25:50.428Z,101504.63
2022-08-21T05:28:22.756Z,101501.59
2022-08-21T05:30:54.989Z,101497.78
2022-08-21T05:33:27.080Z,101507.94
2022-08-21T05:35:59.474Z,101503.91
2022-08-21T05:38:31.525Z,101505.31
2022-08-21T05:41:03.761Z,101506.16
2022-08-21T05:43:37.347Z,101502.56
2022-08-21T05:46:09.774Z,101504.47
2022-08-21T05:48:41.802Z,101508.91
2022-08-21T05:51:15.975Z,101509.97
2022-08-21T05:53:48.403Z,101513.81
2022-08-21T05:56:20.535Z,101509.84
2022-08-21T05:58:52.646Z,101507.59
2022-08-21T06:01:25.620Z,101510.56
2022-08-21T06:03:57.790Z,101501.25
2022-08-21T06:06:30.349Z,101508.44
2022-08-21T06:09:03.112Z,101515.13
2022-08-21T06:11:35.656Z,101512.16
2022-08-21T06:14:08.713Z,101506.41
2022-08-21T06:16:40.905Z,101505.31
2022-08-21T06:19:13.444Z,101511.66
2022-08-21T06:21:45.576Z,101502.81
2022-08-21T06:24:17.591Z,101506.16
2022-08-21T06:26:50.062Z,101502.56
2022-08-21T06:29:22.389Z,101503.66
2022-08-21T06:31:54.779Z,101500.06
2022-08-21T06:34:27.795Z,101498.41
2022-08-21T06:36:59.866Z,101499.81
2022-08-21T06:39:32.520Z,101505.69
2022-08-21T06:42:04.757Z,101506.06
2022-08-21T06:44:42.542Z,101504.38
2022-08-21T06:47:14.852Z,101499.50
2022-08-21T06:49:47.139Z,101502.25
2022-08-21T06:52:19.572Z,101506.06
2022-08-21T06:54:51.568Z,101498.28
2022-08-21T06:57:23.702Z,101504.88
2022-08-21T06:59:56.010Z,101491.94
2022-08-21T07:02:28.310Z,101492.56
2022-08-21T07:05:00.989Z,101482.75
2022-08-21T07:07:33.459Z,101487.31
2022-08-21T07:10:05.975Z,101481.44
2022-08-21T07:12:38.802Z,101485.31
2022-08-21T07:15:11.149Z,101472.88
2022-08-21T07:17:43.434Z,101470.00
2022-08-21T07:20:15.638Z,101477.31
2022-08-21T07:22:48.008Z,101471.94
2022-08-21T07:25:20.667Z,101473.34
2022-08-21T07:27:53.178Z,101471.22
2022-08-21T07:30:26.207Z,101465.47
2022-08-21T07:33:00.489Z,101471.09
2022-08-21T07:35:34.221Z,101461.84
2022-08-21T07:38:06.255Z,101464.13
2022-08-21T07:40:38.347Z,101455.97
2022-08-21T07:43:10.722Z,101451.75
2022-08-21T07:45:42.937Z,101450.44
2022-08-21T07:48:15.275Z,101453.06
2022-08-21T07:50:48.672Z,101461.06
2022-08-21T07:53:20.899Z,101455.31
2022-08-21T07:55:53.309Z,101461.16
2022-08-21T07:58:25.538Z,101454.66
2022-08-21T08:00:58.164Z,101453.94
2022-08-21T08:03:30.627Z,101451.28
2022-08-21T08:06:05.214Z,101454.41
2022-08-21T08:08:37.154Z,101450.53
2022-08-21T08:11:11.898Z,101443.72
2022-08-21T08:13:46.853Z,101449.06
2022-08-21T08:16:19.450Z,101448.44
2022-08-21T08:18:52.268Z,101445.25
2022-08-21T08:21:24.468Z,101448.94
2022-08-21T08:23:56.405Z,101450.22
2022-08-21T08:26:28.542Z,101445.41
2022-08-21T08:29:01.009Z,101441.13
2022-08-21T08:31:34.717Z,101440.47
2022-08-21T08:34:06.721Z,101447.97
2022-08-21T08:36:38.807Z,101446.97
2022-08-21T08:39:13.444Z,101448.13
2022-08-21T08:42:32.289Z,101434.94
2022-08-21T08:45:14.609Z,101427.91
2022-08-21T08:47:51.039Z,101438.25
2022-08-21T08:50:29.320Z,101439.28
2022-08-21T08:53:06.269Z,101439.41
2022-08-21T08:55:43.040Z,101433.69
2022-08-21T08:58:33.495Z,101431.34
2022-08-21T09:01:13.615Z,101435.31
2022-08-21T09:03:50.572Z,101432.34
2022-08-21T09:06:47.180Z,101437.91
2022-08-21T09:09:24.206Z,101430.41
2022-08-21T09:12:34.487Z,101431.53
2022-08-21T09:15:23.777Z,101421.34
2022-08-21T09:18:17.567Z,101432.72
2022-08-21T09:21:21.941Z,101431.06
2022-08-21T09:24:11.712Z,101418.09
2022-08-21T09:27:07.034Z,101426.63
2022-08-21T09:29:41.842Z,101424.94
2022-08-21T09:32:37.724Z,101418.34
2022-08-21T09:35:16.689Z,101417.25
2022-08-21T09:38:00.148Z,101409.22
2022-08-21T09:40:46.289Z,101418.03
2022-08-21T09:43:22.489Z,101414.59
2022-08-21T09:46:12.232Z,101419.28
2022-08-21T09:48:49.894Z,101418.75
2022-08-21T09:51:26.311Z,101409.94
2022-08-21T09:54:13.903Z,101413.91
2022-08-21T09:57:33.016Z,101407.94
2022-08-21T10:00:19.364Z,101407.66
2022-08-21T10:02:51.347Z,101404.09
2022-08-21T10:05:26.616Z,101415.16
2022-08-21T10:07:58.516Z,101412.97
2022-08-21T10:10:33.010Z,101409.19
2022-08-21T10:13:15.995Z,101399.94
2022-08-21T10:16:15.276Z,101402.75
2022-08-21T10:18:51.342Z,101399.75
2022-08-21T10:22:01.638Z,101404.59
2022-08-21T10:24:44.102Z,101405.81
2022-08-21T10:27:45.187Z,101403.06
2022-08-21T10:30:25.968Z,101401.63
2022-08-21T10:33:24.993Z,101402.13
2022-08-21T10:36:12.967Z,101404.00
2022-08-21T10:39:35.457Z,101403.16
2022-08-21T10:42:40.532Z,101395.72
2022-08-21T10:45:21.500Z,101401.25
2022-08-21T10:47:58.174Z,101398.97
2022-08-21T10:50:41.156Z,101396.78
2022-08-21T10:54:07.259Z,101406.81
2022-08-21T10:56:41.838Z,101401.03
2022-08-21T10:59:29.984Z,101397.78
2022-08-21T11:02:24.747Z,101406.13
2022-08-21T11:04:58.397Z,101401.47
2022-08-21T11:07:34.860Z,101401.22
2022-08-21T11:10:13.567Z,101397.97
2022-08-21T11:12:54.772Z,101400.00
2022-08-21T11:15:40.079Z,101405.53
2022-08-21T11:18:24.178Z,101403.91
2022-08-21T11:21:04.211Z,101400.97
2022-08-21T11:24:04.560Z,101403.84
2022-08-21T11:26:44.549Z,101409.13
2022-08-21T11:29:22.489Z,101407.28
2022-08-21T11:32:16.338Z,101402.19
2022-08-21T11:35:19.095Z,101401.28
2022-08-21T11:38:15.384Z,101399.03
2022-08-21T11:41:05.500Z,101408.22
2022-08-21T11:43:43.748Z,101392.41
2022-08-21T11:46:37.450Z,101403.41
2022-08-21T11:49:29.822Z,101393.16
2022-08-21T11:52:43.481Z,101413.63
2022-08-21T11:55:24.553Z,101400.63
2022-08-21T11:58:00.997Z,101393.88
2022-08-21T12:00:48.921Z,101391.63
2022-08-21T12:03:30.135Z,101388.00
2022-08-21T12:06:12.666Z,101381.44
2022-08-21T12:08:46.791Z,101383.44
2022-08-21T12:11:18.909Z,101384.75
2022-08-21T12:14:02.017Z,101384.66
2022-08-21T12:16:37.973Z,101376.25
2022-08-21T12:19:15.704Z,101381.41
2022-08-21T12:21:55.478Z,101375.72
2022-08-21T12:24:27.954Z,101379.75
2022-08-21T12:27:14.402Z,101374.13
2022-08-21T12:29:48.582Z,101381.44
2022-08-21T12:32:26.239Z,101375.34
2022-08-21T12:35:14.227Z,101383.50
2022-08-21T12:38:17.149Z,101383.59
2022-08-21T12:41:00.197Z,101371.53
2022-08-21T12:43:37.219Z,101378.50
2022-08-21T12:46:18.352Z,101366.41
2022-08-21T12:48:53.829Z,101373.47
2022-08-21T12:51:32.778Z,101370.88
2022-08-21T12:54:04.826Z,101372.66
2022-08-21T12:56:38.111Z,101366.44
2022-08-21T12:59:13.020Z,101362.53
2022-08-21T13:01:50.989Z,101365.22
2022-08-21T13:04:28.343Z,101359.53
2022-08-21T13:07:00.748Z,101362.81
2022-08-21T13:09:32.961Z,101358.50
2022-08-21T13:12:09.631Z,101364.44
2022-08-21T13:14:46.130Z,101357.28
2022-08-21T13:17:23.647Z,101363.66
2022-08-21T13:20:04.780Z,101354.91
2022-08-21T13:22:44.744Z,101356.94
2022-08-21T13:25:19.430Z,101356.34
2022-08-21T13:28:12.689Z,101355.44
2022-08-21T13:30:56.635Z,101337.22
2022-08-21T13:33:35.177Z,101346.66
2022-08-21T13:36:20.070Z,101348.31
2022-08-21T13:38:54.371Z,101348.59
2022-08-21T13:41:32.672Z,101333.38
2022-08-21T13:44:18.351Z,101344.63
2022-08-21T13:46:52.392Z,101343.81
2022-08-21T13:49:36.138Z,101340.53
2022-08-21T13:52:26.675Z,101344.34
2022-08-21T13:55:01.751Z,101338.19
2022-08-21T13:57:34.969Z,101332.00
2022-08-21T14:00:19.439Z,101333.59
2022-08-21T14:02:54.009Z,101339.59
2022-08-21T14:05:32.720Z,101347.28
2022-08-21T14:08:09.244Z,101345.31
2022-08-21T14:10:52.288Z,101344.03
2022-08-21T14:13:44.308Z,101342.19
2022-08-21T14:16:17.991Z,101345.28
2022-08-21T14:18:51.894Z,101340.78
2022-08-21T14:21:29.161Z,101335.41
2022-08-21T14:24:14.242Z,101334.50
2022-08-21T14:27:07.493Z,101337.25
2022-08-21T14:29:44.017Z,101332.38
2022-08-21T14:32:24.956Z,101331.59
2022-08-21T14:34:59.361Z,101331.44
2022-08-21T14:37:31.664Z,101337.03
2022-08-21T14:40:06.054Z,101340.91
2022-08-21T14:42:39.522Z,101336.59
2022-08-21T14:45:23.867Z,101331.59
2022-08-21T14:47:57.391Z,101334.09
2022-08-21T14:50:29.766Z,101345.41
2022-08-21T14:53:01.880Z,101346.81
2022-08-21T14:55:54.147Z,101345.97
2022-08-21T14:58:26.395Z,101343.31
2022-08-21T15:00:59.231Z,101330.88
2022-08-21T15:03:32.131Z,101344.66
2022-08-21T15:06:06.230Z,101347.00
2022-08-21T15:08:38.914Z,101338.50
2022-08-21T15:11:19.916Z,101354.41
2022-08-21T15:14:09.763Z,101346.91
2022-08-21T15:16:42.933Z,101343.97
2022-08-21T15:19:14.888Z,101344.28
2022-08-21T15:21:46.825Z,101346.00
2022-08-21T15:24:18.960Z,101347.44
2022-08-21T15:26:51.678Z,101339.38
2022-08-21T15:29:25.900Z,101339.66
2022-08-21T15:32:28.372Z,101339.75
2022-08-21T15:35:00.599Z,101344.91
2022-08-21T15:37:33.332Z,101340.81
2022-08-21T15:40:08.109Z,101341.28
2022-08-21T15:42:41.879Z,101336.00
2022-08-21T15:45:14.816Z,101340.66
2022-08-21T15:47:47.175Z,101348.84
2022-08-21T15:50:20.011Z,101343.66
2022-08-21T15:52:52.064Z,101334.44
2022-08-21T15:55:24.232Z,101340.66
2022-08-21T15:57:57.352Z,101343.06
2022-08-21T16:00:33.439Z,101343.16
2022-08-21T16:03:07.400Z,101338.16
2022-08-21T16:05:39.393Z,101335.09
2022-08-21T16:08:11.973Z,101342.09
2022-08-21T16:10:44.002Z,101341.09
2022-08-21T16:13:23.353Z,101343.88
2022-08-21T16:15:55.693Z,101337.69
2022-08-21T16:18:27.725Z,101341.59
2022-08-21T16:20:59.713Z,101343.50
2022-08-21T16:23:31.758Z,101339.69
2022-08-21T16:26:04.140Z,101345.31
2022-08-21T16:28:38.848Z,101344.00
2022-08-21T16:31:11.273Z,101340.19
2022-08-21T16:33:51.773Z,101337.22
2022-08-21T16:36:29.479Z,101345.00
2022-08-21T16:39:01.579Z,101343.41
2022-08-21T16:41:34.639Z,101342.31
2022-08-21T16:44:07.253Z,101340.97
2022-08-21T16:46:42.023Z,101349.06
2022-08-21T16:49:14.477Z,101349.63
2022-08-21T16:51:46.413Z,101341.28
2022-08-21T16:54:18.882Z,101341.28
2022-08-21T16:56:51.360Z,101344.63
2022-08-21T16:59:26.435Z,101333.47
2022-08-21T17:01:58.475Z,101341.84
2022-08-21T17:04:31.114Z,101339.03
2022-08-21T17:07:03.185Z,101340.72
2022-08-21T17:09:35.378Z,101349.34
2022-08-21T17:12:07.962Z,101341.28
2022-08-21T17:14:39.837Z,101340.44
2022-08-21T17:17:12.265Z,101347.44
2022-08-21T17:19:44.638Z,101349.13
2022-08-21T17:22:16.818Z,101354.47
2022-08-21T17:24:48.678Z,101350.34
2022-08-21T17:27:26.835Z,101353.16
2022-08-21T17:29:59.038Z,101355.16
2022-08-21T17:32:31.250Z,101353.22
2022-08-21T17:35:04.811Z,101357.13
2022-08-21T17:37:37.158Z,101357.72
2022-08-21T17:40:14.260Z,101360.75
2022-08-21T17:42:47.866Z,101362.19
2022-08-21T17:45:20.503Z,101365.00
2022-08-21T17:47:52.621Z,101371.09
2022-08-21T17:50:24.790Z,101373.91
2022-08-21T17:52:56.912Z,101376.16
2022-08-21T17:55:29.508Z,101380.34
2022-08-21T17:58:03.690Z,101383.41
2022-08-21T18:00:36.115Z,101381.22
2022-08-21T18:03:15.069Z,101387.34
2022-08-21T18:05:48.548Z,101400.16
2022-08-21T18:08:20.836Z,101395.44
2022-08-21T18:10:53.014Z,101405.75
2022-08-21T18:13:29.104Z,101405.19
2022-08-21T18:16:01.227Z,101404.63
2022-08-21T18:18:38.960Z,101407.94
2022-08-21T18:21:10.970Z,101421.53
2022-08-21T18:23:43.996Z,101417.09
2022-08-21T18:26:25.273Z,101417.66
2022-08-21T18:29:00.377Z,101419.59
2022-08-21T18:31:33.533Z,101422.06
2022-08-21T18:34:27.140Z,101419.00
2022-08-21T18:36:59.014Z,101420.69
2022-08-21T18:39:38.911Z,101421.78
2022-08-21T18:42:14.720Z,101427.88
2022-08-21T18:44:49.995Z,101426.19
2022-08-21T18:47:45.564Z,101433.88
2022-08-21T18:50:21.854Z,101438.31
2022-08-21T18:52:56.972Z,101437.16
2022-08-21T18:55:29.588Z,101439.91
2022-08-21T18:58:02.434Z,101442.63
2022-08-21T19:00:38.030Z,101444.00
2022-08-21T19:03:19.999Z,101445.91
2022-08-21T19:05:56.277Z,101443.66
2022-08-21T19:08:28.763Z,101445.03
2022-08-21T19:11:02.429Z,101445.81
2022-08-21T19:13:35.025Z,101454.09
2022-08-21T19:16:09.729Z,101452.41
2022-08-21T19:18:43.652Z,101452.13
2022-08-21T19:21:16.445Z,101457.34
2022-08-21T19:23:52.621Z,101461.75
2022-08-21T19:26:26.627Z,101470.03
2022-08-21T19:29:02.058Z,101468.91
2022-08-21T19:31:39.065Z,101473.31
2022-08-21T19:34:22.176Z,101467.47
2022-08-21T19:36:56.733Z,101463.28
2022-08-21T19:39:28.777Z,101462.16
2022-08-21T19:42:00.703Z,101459.09
2022-08-21T19:44:33.847Z,101465.44
2022-08-21T19:47:14.127Z,101468.69
2022-08-21T19:49:52.952Z,101464.81
2022-08-21T19:52:25.584Z,101468.09
2022-08-21T19:54:57.675Z,101473.06
2022-08-21T19:57:29.598Z,101477.19
2022-08-21T20:00:02.119Z,101477.47
2022-08-21T20:02:39.768Z,101481.81
2022-08-21T20:05:20.262Z,101487.88
2022-08-21T20:07:53.212Z,101486.72
2022-08-21T20:10:25.870Z,101490.59
2022-08-21T20:12:58.035Z,101488.66
2022-08-21T20:15:30.264Z,101485.88
2022-08-21T20:18:03.383Z,101497.25
2022-08-21T20:20:38.339Z,101495.31
2022-08-21T20:23:11.105Z,101489.53
2022-08-21T20:25:43.079Z,101485.69
2022-08-21T20:28:15.682Z,101492.06
2022-08-21T20:30:49.706Z,101493.97
2022-08-21T20:33:22.024Z,101488.44
2022-08-21T20:35:54.444Z,101488.44
2022-08-21T20:38:26.449Z,101492.31
2022-08-21T20:40:58.677Z,101496.44
2022-08-21T20:43:31.813Z,101498.88
2022-08-21T20:46:04.597Z,101494.97
2022-08-21T20:48:49.164Z,101497.69
2022-08-21T20:51:27.164Z,101505.09
2022-08-21T20:54:23.669Z,101499.25
2022-08-21T20:57:29.832Z,101505.88
2022-08-21T21:00:08.309Z,101504.16
2022-08-21T21:03:10.650Z,101500.00
2022-08-21T21:05:51.443Z,101506.84
2022-08-21T21:08:52.133Z,101511.00
2022-08-21T21:11:34.234Z,101504.03
2022-08-21T21:14:36.145Z,101509.56
2022-08-21T21:17:16.273Z,101516.72
2022-08-21T21:20:05.795Z,101522.19
2022-08-21T21:22:47.749Z,101517.44
2022-08-21T21:25:39.950Z,101527.09
2022-08-21T21:28:35.123Z,101523.75
2022-08-21T21:31:07.085Z,101522.34
2022-08-21T21:33:38.943Z,101520.38
2022-08-21T21:36:33.732Z,101517.91
2022-08-21T21:39:23.781Z,101520.28
2022-08-21T21:42:32.781Z,101519.72
2022-08-21T21:45:10.335Z,101524.94
2022-08-21T21:47:56.032Z,101523.50
2022-08-21T21:50:52.803Z,101527.63
2022-08-21T21:54:04.031Z,101533.16
2022-08-21T21:56:55.061Z,101535.09
2022-08-21T21:59:51.463Z,101534.25
2022-08-21T22:02:44.801Z,101533.16
2022-08-21T22:05:35.465Z,101537.84
2022-08-21T22:08:50.555Z,101542.19
2022-08-21T22:11:55.375Z,101534.19
2022-08-21T22:14:34.241Z,101547.16
2022-08-21T22:17:31.964Z,101539.72
2022-08-21T22:20:08.626Z,101540.56
2022-08-21T22:22:45.522Z,101542.19
2022-08-21T22:25:29.371Z,101546.63
2022-08-21T22:28:09.886Z,101540.56
2022-08-21T22:31:08.233Z,101548.84
2022-08-21T22:33:40.346Z,101541.88
2022-08-21T22:36:18.351Z,101536.63
2022-08-21T22:38:50.884Z,101534.94
2022-08-21T22:41:31.033Z,101539.88
2022-08-21T22:44:06.894Z,101536.56
2022-08-21T22:47:08.838Z,101538.72
2022-08-21T22:49:44.752Z,101537.56
2022-08-21T22:52:28.819Z,101542.75
2022-08-21T22:55:04.677Z,101537.75
2022-08-21T22:57:36.514Z,101529.16
2022-08-21T23:00:14.902Z,101537.06
2022-08-21T23:02:52.235Z,101543.97
2022-08-21T23:05:30.705Z,101546.97
2022-08-21T23:08:28.219Z,101546.41
2022-08-21T23:11:13.177Z,101555.78
2022-08-21T23:13:49.287Z,101558.22
2022-08-21T23:16:47.197Z,101549.09
2022-08-21T23:19:25.239Z,101552.59
2022-08-21T23:22:18.816Z,101549.50
2022-08-21T23:25:18.694Z,101554.44
2022-08-21T23:27:53.738Z,101551.69
2022-08-21T23:30:44.159Z,101554.19
2022-08-21T23:33:24.816Z,101549.50
2022-08-21T23:36:39.469Z,101551.16
2022-08-21T23:39:11.464Z,101550.31
2022-08-21T23:41:53.643Z,101544.81
2022-08-21T23:44:37.483Z,101545.88
2022-08-21T23:47:33.769Z,101548.94
2022-08-21T23:50:14.178Z,101557.22
2022-08-21T23:53:09.053Z,101545.09
2022-08-21T23:56:00.000Z,101547.00
2022-08-21T23:59:02.720Z,101546.16
